Terminal Aerodrome Forecast
Issued by NWS Cleveland, OH

Home | Current Version | Previous Version | Text Only | Print | Product List | Glossary Off
Versions: 1 2 3 4 5 6 7 8 9 10 11 12 13 14 15 16 17 18 19 20 21 22 23 24 25 26 27 28 29 30

000
FTUS41 KCLE 041137
TAFCLE
TAF
KCLE 041137Z 0412/0518 18007KT P6SM VCSH SCT050 BKN100
     FM041800 20010KT P6SM -SHRA OVC050
     FM042000 22010KT 5SM -SHRA OVC035
      TEMPO 0420/0422 01015KT 3SM TSRA OVC025CB
     FM042200 04007KT 5SM -SHRA BR OVC025
     FM050200 04007KT P6SM OVC015=

USA.gov is the U.S. government's official web portal to all federal, state and local government web resources and services.